Time;durP1;ratioP1;P1;durP2;ratioP2;P2;SDS_P1;SDS_P2;PMS_P1;PMS_P2;Temp;Humidity;BMP_temperature;BMP_pressure;BME280_temperature;BME280_humidity;BME280_pressure;Samples;Min_cycle;Max_cycle;Signal;HPM_P1;HPM_P2
2022/08/04 00:03:17;;;;;;;7.45;4.90;;;21.50;99.90;;;;;;10626944;27;20212;-90
2022/08/04 00:08:19;;;;;;;4.68;4.28;;;21.50;99.90;;;;;;10608977;27;20184;-90
2022/08/04 00:13:24;;;;;;;5.50;5.03;;;21.50;99.90;;;;;;10626604;27;20191;-90
2022/08/04 00:18:38;;;;;;;5.13;4.72;;;21.50;99.90;;;;;;10607866;27;20234;-90
2022/08/04 00:23:43;;;;;;;5.35;4.95;;;21.50;99.90;;;;;;10608015;27;20245;-90
2022/08/04 00:29:06;;;;;;;5.25;4.85;;;21.40;99.90;;;;;;10626269;27;20532;-90
2022/08/04 00:34:12;;;;;;;5.32;4.90;;;21.40;99.90;;;;;;10625611;27;20228;-90
2022/08/04 00:39:16;;;;;;;5.15;4.65;;;21.40;99.90;;;;;;10625902;27;20239;-90
2022/08/04 00:44:41;;;;;;;5.40;5.00;;;21.40;99.90;;;;;;10625764;27;20575;-90
2022/08/04 00:50:02;;;;;;;5.60;5.15;;;21.40;99.90;;;;;;10574035;27;20253;-90
2022/08/04 00:55:17;;;;;;;5.45;4.97;;;21.40;99.90;;;;;;10625405;27;20550;-90
2022/08/04 01:00:20;;;;;;;4.82;4.43;;;21.40;99.90;;;;;;10605930;27;20200;-90
2022/08/04 01:05:51;;;;;;;5.38;4.88;;;21.40;99.90;;;;;;10606120;27;20204;-91
2022/08/04 01:11:24;;;;;;;5.13;4.72;;;21.40;99.90;;;;;;10571177;27;20269;-90
2022/08/04 01:16:30;;;;;;;5.32;4.93;;;21.40;99.90;;;;;;10605502;27;20192;-90
2022/08/04 01:22:16;;;;;;;6.05;5.55;;;21.40;99.90;;;;;;10623545;27;20212;-90
2022/08/04 01:27:56;;;;;;;5.47;4.97;;;21.40;99.90;;;;;;10605722;27;20192;-91
2022/08/04 01:33:06;;;;;;;5.28;4.88;;;21.40;99.90;;;;;;10623435;27;20228;-90
2022/08/04 01:38:16;;;;;;;5.63;5.13;;;21.40;99.90;;;;;;10604897;27;20204;-91
2022/08/04 01:43:23;;;;;;;5.25;4.85;;;21.40;99.90;;;;;;10623490;27;20220;-91
2022/08/04 01:48:27;;;;;;;5.32;4.95;;;21.30;99.90;;;;;;10604782;28;20200;-91
2022/08/04 01:53:32;;;;;;;5.72;5.22;;;21.40;99.90;;;;;;10605204;28;20192;-91
2022/08/04 01:58:36;;;;;;;5.68;5.20;;;21.30;99.90;;;;;;10605118;28;20260;-88
2022/08/04 02:03:45;;;;;;;5.47;5.07;;;21.40;99.90;;;;;;10587745;28;20287;-88
2022/08/04 02:09:27;;;;;;;5.57;5.18;;;21.40;99.90;;;;;;10607803;28;20605;-88
2022/08/04 02:14:43;;;;;;;5.53;5.13;;;21.40;99.90;;;;;;10604784;28;20608;-88
2022/08/04 02:19:58;;;;;;;5.90;5.40;;;21.30;99.90;;;;;;10622635;28;20196;-88
2022/08/04 02:25:07;;;;;;;5.97;5.47;;;21.30;99.90;;;;;;10622751;28;20636;-88
2022/08/04 02:30:10;;;;;;;5.25;4.85;;;21.30;99.90;;;;;;10622690;28;20192;-87
2022/08/04 02:35:18;;;;;;;6.20;5.70;;;21.30;99.90;;;;;;10625833;27;20261;-88
2022/08/04 02:40:23;;;;;;;5.45;5.05;;;21.30;99.90;;;;;;10630871;27;20546;-88
2022/08/04 02:45:27;;;;;;;6.13;5.55;;;21.30;99.90;;;;;;10630368;27;20192;-88
2022/08/04 02:50:33;;;;;;;5.90;5.40;;;21.30;99.90;;;;;;10630141;27;20606;-88
2022/08/04 02:55:37;;;;;;;6.97;6.38;;;21.30;99.90;;;;;;10611705;27;20226;-88
2022/08/04 03:00:51;;;;;;;5.43;5.03;;;21.30;99.90;;;;;;10629551;27;20618;-87
2022/08/04 03:06:10;;;;;;;6.55;6.00;;;21.30;99.90;;;;;;10611109;27;20192;-88
2022/08/04 03:12:03;;;;;;;5.93;5.43;;;21.30;99.90;;;;;;10610912;27;20269;-88
2022/08/04 03:17:08;;;;;;;5.43;5.03;;;21.30;99.90;;;;;;10629045;27;20718;-88
2022/08/04 03:22:38;;;;;;;6.20;5.70;;;21.20;99.90;;;;;;10628440;27;20220;-88
2022/08/04 03:28:19;;;;;;;6.68;6.05;;;21.30;99.90;;;;;;10628393;27;20557;-87
2022/08/04 03:33:41;;;;;;;5.88;5.28;;;21.30;99.90;;;;;;10609882;27;20228;-89
2022/08/04 03:39:03;;;;;;;6.78;6.28;;;21.30;99.90;;;;;;10592622;27;20203;-88
2022/08/04 03:44:25;;;;;;;5.55;5.13;;;21.30;99.90;;;;;;10627139;27;20245;-88
2022/08/04 03:49:27;;;;;;;5.90;5.50;;;21.30;99.90;;;;;;10608591;27;20200;-88
2022/08/04 03:54:48;;;;;;;6.07;5.57;;;21.30;99.90;;;;;;10627329;27;20196;-88
2022/08/04 04:00:10;;;;;;;6.38;5.78;;;21.30;99.90;;;;;;10627058;27;20196;-88
2022/08/04 04:05:18;;;;;;;6.78;6.18;;;21.30;99.90;;;;;;10626913;27;20268;-88
2022/08/04 04:11:05;;;;;;;6.35;5.85;;;21.30;99.90;;;;;;10626619;27;20188;-87
2022/08/04 04:16:22;;;;;;;6.05;5.45;;;21.30;99.90;;;;;;10626660;27;20188;-88
2022/08/04 04:22:02;;;;;;;5.57;5.18;;;21.40;99.90;;;;;;10608068;27;20203;-88
2022/08/04 04:27:13;;;;;;;6.43;5.82;;;21.40;99.90;;;;;;10590885;27;20545;-88
2022/08/04 04:32:55;;;;;;;6.70;6.20;;;21.40;99.90;;;;;;10625972;27;20224;-88
2022/08/04 04:38:17;;;;;;;6.05;5.65;;;21.40;99.90;;;;;;10607013;27;20249;-88
2022/08/04 04:43:45;;;;;;;6.30;5.80;;;21.40;99.90;;;;;;10606537;27;20227;-87
2022/08/04 04:48:57;;;;;;;5.95;5.53;;;21.40;99.90;;;;;;10411250;28;20204;-88
2022/08/04 04:54:17;;;;;;;6.40;5.80;;;21.40;99.90;;;;;;10411820;28;20204;-88
2022/08/04 04:59:23;;;;;;;5.78;5.30;;;21.40;99.90;;;;;;10413803;28;20207;-89
2022/08/04 05:05:02;;;;;;;6.88;6.30;;;21.40;99.90;;;;;;10401161;28;20317;-87
2022/08/04 05:10:17;;;;;;;6.13;5.65;;;21.50;99.90;;;;;;10412840;28;20204;-86
2022/08/04 05:15:27;;;;;;;6.60;6.00;;;21.50;99.90;;;;;;10412187;28;20203;-87
2022/08/04 05:20:37;;;;;;;6.85;6.18;;;21.40;99.90;;;;;;10377954;28;20261;-90
2022/08/04 05:25:50;;;;;;;6.43;5.93;;;21.50;99.90;;;;;;10566110;27;20228;-90
2022/08/04 05:31:14;;;;;;;7.93;7.22;;;21.40;99.90;;;;;;10589800;27;20616;-90
2022/08/04 05:36:20;;;;;;;6.85;6.28;;;21.40;99.90;;;;;;10605001;27;20685;-90
2022/08/04 05:41:43;;;;;;;7.03;6.43;;;21.30;99.90;;;;;;10605292;27;20227;-90
2022/08/04 05:46:58;;;;;;;7.40;6.70;;;21.30;99.90;;;;;;10607119;28;20188;-90
2022/08/04 05:52:02;;;;;;;7.20;6.60;;;21.50;99.90;;;;;;10623098;28;20192;-90
2022/08/04 05:57:06;;;;;;;7.90;7.10;;;21.50;99.90;;;;;;10605185;28;20265;-90
2022/08/04 06:02:09;;;;;;;7.70;6.93;;;21.60;99.90;;;;;;10622970;28;20216;-90
2022/08/04 06:07:13;;;;;;;13.00;11.05;;;21.70;99.90;;;;;;10623338;27;20261;-89
2022/08/04 06:12:29;;;;;;;6.78;6.28;;;21.80;99.90;;;;;;10612997;27;20204;-90
2022/08/04 06:17:55;;;;;;;17.52;11.55;;;21.80;99.90;;;;;;10631412;27;20256;-90
2022/08/04 06:23:19;;;;;;;7.00;6.40;;;22.10;99.90;;;;;;10631316;27;20276;-90
2022/08/04 06:28:23;;;;;;;10.80;9.57;;;22.10;99.90;;;;;;10631150;27;20595;-90
2022/08/04 06:33:32;;;;;;;8.07;7.20;;;22.40;99.90;;;;;;10611802;27;20296;-90
2022/08/04 06:38:56;;;;;;;9.05;6.72;;;22.60;99.90;;;;;;10611583;27;20300;-90
2022/08/04 06:44:06;;;;;;;12.38;10.05;;;22.60;99.90;;;;;;10612302;27;20273;-90
2022/08/04 06:49:10;;;;;;;15.65;9.48;;;23.10;99.90;;;;;;10611886;27;20192;-90
2022/08/04 06:54:12;;;;;;;11.88;10.68;;;23.20;99.90;;;;;;10630177;27;20563;-89
2022/08/04 06:59:15;;;;;;;13.52;10.73;;;23.50;99.90;;;;;;10630050;27;20238;-90
2022/08/04 07:04:18;;;;;;;9.23;7.82;;;23.90;99.90;;;;;;10611720;27;20212;-90
2022/08/04 07:09:21;;;;;;;14.20;10.68;;;23.90;99.90;;;;;;10610509;27;20576;-89
2022/08/04 07:14:25;;;;;;;12.18;9.77;;;24.40;99.90;;;;;;10610547;27;20745;-90
2022/08/04 07:19:29;;;;;;;9.50;8.63;;;24.70;99.90;;;;;;10627577;27;20208;-90
2022/08/04 07:24:34;;;;;;;15.27;9.75;;;24.80;99.90;;;;;;10628733;27;20773;-91
2022/08/04 07:29:38;;;;;;;11.55;10.05;;;25.20;99.90;;;;;;10609858;27;20245;-90
2022/08/04 07:34:42;;;;;;;12.30;9.80;;;25.50;99.90;;;;;;10583992;28;20232;-87
2022/08/04 07:39:51;;;;;;;14.35;8.55;;;25.70;99.90;;;;;;10584694;28;20201;-87
2022/08/04 07:44:53;;;;;;;10.15;9.18;;;26.30;99.90;;;;;;10585335;28;20216;-87
2022/08/04 07:49:57;;;;;;;10.98;8.52;;;26.40;99.90;;;;;;10585294;28;20190;-88
2022/08/04 07:54:59;;;;;;;11.75;9.55;;;26.20;99.90;;;;;;10567140;28;20240;-89
2022/08/04 08:00:04;;;;;;;10.35;9.35;;;26.30;99.90;;;;;;10583593;28;20193;-89
2022/08/04 08:05:15;;;;;;;9.40;7.75;;;26.90;99.90;;;;;;10590142;28;20266;-88
2022/08/04 08:10:18;;;;;;;12.32;9.05;;;26.90;99.90;;;;;;10583994;28;20201;-88
2022/08/04 08:15:21;;;;;;;9.32;8.43;;;26.60;99.90;;;;;;10566615;28;20547;-89
2022/08/04 08:20:23;;;;;;;7.47;6.78;;;27.30;99.90;;;;;;10584349;28;20205;-88
2022/08/04 08:25:32;;;;;;;9.23;7.47;;;27.00;99.90;;;;;;10584392;28;20247;-89
2022/08/04 08:30:34;;;;;;;12.32;9.82;;;25.80;99.90;;;;;;10583857;28;20550;-89
2022/08/04 08:36:02;;;;;;;10.55;9.00;;;26.40;99.90;;;;;;10622052;27;20224;-89
2022/08/04 08:41:46;;;;;;;10.95;8.88;;;27.50;99.90;;;;;;10607800;27;20192;-88
2022/08/04 08:47:08;;;;;;;7.10;6.50;;;27.30;99.90;;;;;;10625939;27;20204;-89
2022/08/04 08:52:23;;;;;;;9.65;7.47;;;25.70;99.90;;;;;;10625485;27;20188;-88
2022/08/04 08:57:58;;;;;;;7.82;7.00;;;26.50;99.90;;;;;;10625229;27;20189;-88
2022/08/04 09:03:10;;;;;;;7.75;6.70;;;27.70;99.90;;;;;;10624872;27;20261;-89
2022/08/04 09:08:43;;;;;;;7.68;6.97;;;27.70;99.90;;;;;;10605888;27;20200;-88
2022/08/04 09:14:00;;;;;;;6.60;5.97;;;28.10;99.90;;;;;;10626475;27;20218;-88
2022/08/04 09:19:12;;;;;;;6.95;6.35;;;27.50;99.90;;;;;;10625469;27;20681;-89
2022/08/04 09:24:54;;;;;;;5.50;5.05;;;26.30;99.90;;;;;;10624076;27;20220;-87
2022/08/04 09:30:09;;;;;;;9.40;6.60;;;27.90;99.90;;;;;;10624095;27;20188;-88
2022/08/04 09:35:24;;;;;;;7.68;6.57;;;27.90;99.90;;;;;;10623732;27;20719;-88
2022/08/04 09:40:44;;;;;;;8.25;5.93;;;27.60;99.90;;;;;;10623767;27;20193;-88
2022/08/04 09:46:07;;;;;;;7.57;6.82;;;28.40;99.90;;;;;;10604357;27;20253;-88
2022/08/04 09:51:31;;;;;;;6.72;6.13;;;27.60;99.90;;;;;;10605539;28;20562;-89
2022/08/04 09:57:09;;;;;;;6.18;5.57;;;28.50;99.90;;;;;;10623550;28;20656;-88
2022/08/04 10:02:15;;;;;;;7.30;6.70;;;28.30;99.90;;;;;;10623410;28;20188;-89
2022/08/04 10:07:33;;;;;;;6.82;6.22;;;27.80;99.90;;;;;;10605154;28;20257;-89
2022/08/04 10:12:48;;;;;;;9.27;6.53;;;28.10;99.50;;;;;;10623282;28;20204;-89
2022/08/04 10:17:53;;;;;;;6.95;6.22;;;27.90;99.90;;;;;;10604082;28;20256;-88
2022/08/04 10:23:01;;;;;;;6.80;6.30;;;29.00;99.90;;;;;;10622952;28;20208;-89
2022/08/04 10:28:18;;;;;;;6.03;5.43;;;29.00;99.70;;;;;;10622858;28;20191;-89
2022/08/04 10:33:24;;;;;;;7.30;6.30;;;;;;;;;;10622467;28;20232;-88
2022/08/04 10:38:40;;;;;;;7.78;6.97;;;29.70;99.30;;;;;;10622793;28;20241;-89
2022/08/04 10:44:02;;;;;;;7.15;6.43;;;28.20;99.30;;;;;;10604779;28;20227;-88
2022/08/04 10:49:33;;;;;;;7.35;6.75;;;28.90;99.90;;;;;;10622457;28;20541;-88
2022/08/04 10:54:53;;;;;;;9.32;7.07;;;28.10;99.90;;;;;;10605633;27;20627;-89
2022/08/04 11:00:06;;;;;;;7.10;6.50;;;28.70;99.90;;;;;;10612074;27;20604;-88
2022/08/04 11:05:48;;;;;;;6.80;6.28;;;29.10;97.50;;;;;;10629545;27;20582;-89
2022/08/04 11:10:58;;;;;;;7.18;6.57;;;28.40;99.90;;;;;;10612646;27;20212;-89
2022/08/04 11:16:11;;;;;;;9.63;6.60;;;27.80;99.90;;;;;;10610490;27;20323;-88
2022/08/04 11:21:19;;;;;;;8.85;7.63;;;28.60;99.80;;;;;;10628980;27;20226;-89
2022/08/04 11:26:56;;;;;;;6.88;6.35;;;27.90;99.90;;;;;;10610861;27;20261;-88
2022/08/04 11:32:01;;;;;;;7.95;6.50;;;28.80;99.90;;;;;;10606156;27;20595;-89
2022/08/04 11:37:36;;;;;;;7.15;6.50;;;29.30;99.60;;;;;;10609793;27;20261;-89
2022/08/04 11:42:47;;;;;;;7.80;6.93;;;29.00;98.00;;;;;;10572363;27;20205;-89
2022/08/04 11:48:00;;;;;;;7.60;6.90;;;27.70;99.90;;;;;;10628096;27;20222;-89
2022/08/04 11:53:04;;;;;;;8.05;7.45;;;27.80;99.90;;;;;;10610277;27;20222;-88
2022/08/04 11:58:07;;;;;;;8.02;7.32;;;27.60;99.90;;;;;;10609963;27;20557;-88
2022/08/04 12:03:22;;;;;;;10.55;7.63;;;27.70;99.90;;;;;;10627486;27;20264;-88
2022/08/04 12:08:37;;;;;;;8.63;7.93;;;28.20;99.90;;;;;;10627066;27;20188;-88
2022/08/04 12:14:03;;;;;;;9.27;8.38;;;26.90;99.90;;;;;;10609110;27;20195;-88
2022/08/04 12:19:17;;;;;;;9.02;8.25;;;26.90;99.90;;;;;;10626824;27;20268;-89
2022/08/04 12:24:22;;;;;;;37.72;9.55;;;28.00;99.90;;;;;;10626714;27;20265;-88
2022/08/04 12:29:30;;;;;;;9.93;9.02;;;28.70;99.90;;;;;;10607620;27;20200;-88
2022/08/04 12:34:47;;;;;;;9.68;8.77;;;27.50;99.90;;;;;;10590045;27;20716;-88
2022/08/04 12:39:53;;;;;;;7.88;7.18;;;29.20;99.90;;;;;;10607746;27;20253;-89
2022/08/04 12:45:16;;;;;;;8.35;7.65;;;28.30;98.90;;;;;;10625817;27;20208;-88
2022/08/04 12:50:19;;;;;;;8.32;7.63;;;26.20;99.90;;;;;;10625751;27;20669;-89
2022/08/04 12:55:25;;;;;;;9.63;8.70;;;27.10;99.90;;;;;;10607072;27;20192;-89
2022/08/04 13:00:35;;;;;;;8.52;7.72;;;28.50;99.90;;;;;;10625381;27;20188;-88
2022/08/04 13:05:44;;;;;;;10.60;8.52;;;29.00;99.90;;;;;;10607283;27;20582;-88
2022/08/04 13:10:49;;;;;;;9.52;8.63;;;28.80;99.90;;;;;;10625041;27;20245;-88
2022/08/04 13:15:56;;;;;;;10.93;9.38;;;29.90;99.30;;;;;;10606627;27;20240;-89
2022/08/04 13:21:13;;;;;;;12.77;9.10;;;29.60;98.50;;;;;;10605339;27;20308;-89
2022/08/04 13:26:23;;;;;;;15.38;8.88;;;28.40;98.80;;;;;;10625717;27;20216;-89
2022/08/04 13:31:46;;;;;;;8.30;7.50;;;29.80;98.70;;;;;;10609381;27;20224;-88
2022/08/04 13:36:54;;;;;;;10.48;7.70;;;29.70;95.90;;;;;;10624341;27;20200;-89
2022/08/04 13:42:01;;;;;;;10.27;9.27;;;29.50;98.50;;;;;;10624184;27;20540;-89
2022/08/04 13:47:07;;;;;;;19.10;8.75;;;29.80;99.70;;;;;;10623738;27;20246;-90
2022/08/04 13:52:16;;;;;;;9.25;8.45;;;31.00;98.30;;;;;;10623564;27;20192;-89
2022/08/04 13:57:22;;;;;;;10.55;8.77;;;29.60;96.40;;;;;;10623826;28;20204;-89
2022/08/04 14:03:04;;;;;;;10.98;9.18;;;28.60;99.90;;;;;;10604711;28;20249;-89
2022/08/04 14:08:27;;;;;;;9.45;8.65;;;29.10;98.90;;;;;;10623433;28;20241;-89
2022/08/04 14:13:34;;;;;;;9.75;8.95;;;29.00;99.00;;;;;;10623198;28;20192;-88
2022/08/04 14:18:43;;;;;;;8.35;7.70;;;28.50;99.20;;;;;;10604353;28;20204;-89
2022/08/04 14:23:48;;;;;;;9.25;8.35;;;28.70;98.30;;;;;;10603835;28;20253;-89
2022/08/04 14:28:52;;;;;;;10.13;9.23;;;28.20;99.90;;;;;;10624583;27;20257;-89
2022/08/04 14:34:26;;;;;;;10.32;9.32;;;29.70;99.90;;;;;;10598129;27;20277;-90
2022/08/04 14:39:40;;;;;;;10.10;8.60;;;29.70;98.10;;;;;;10612953;27;20188;-89
2022/08/04 14:45:03;;;;;;;9.55;8.73;;;28.60;99.20;;;;;;10630688;27;20285;-89
2022/08/04 14:50:07;;;;;;;9.48;8.68;;;27.30;99.90;;;;;;10630418;27;20665;-89
2022/08/04 14:55:15;;;;;;;9.38;8.55;;;27.70;99.90;;;;;;10630428;27;20249;-89
2022/08/04 15:00:48;;;;;;;11.40;8.82;;;27.50;99.90;;;;;;10629661;27;20199;-90
2022/08/04 15:05:51;;;;;;;10.02;8.95;;;27.90;99.90;;;;;;10608946;27;20273;-88
2022/08/04 15:11:07;;;;;;;9.13;8.32;;;27.80;99.90;;;;;;10610846;27;20200;-88
2022/08/04 15:16:10;;;;;;;10.40;9.32;;;27.00;99.90;;;;;;10629468;27;20241;-89
2022/08/04 15:21:13;;;;;;;8.73;8.02;;;27.40;99.90;;;;;;10629409;27;20196;-89
2022/08/04 15:26:22;;;;;;;10.73;8.52;;;26.60;99.90;;;;;;10609924;27;20216;-89
2022/08/04 15:31:26;;;;;;;10.00;8.95;;;26.40;99.90;;;;;;10628830;27;20289;-89
2022/08/04 15:36:56;;;;;;;15.10;9.07;;;26.60;99.90;;;;;;10628762;27;20196;-89
2022/08/04 15:42:11;;;;;;;9.23;8.32;;;27.20;99.90;;;;;;10609703;27;20196;-89
2022/08/04 15:47:21;;;;;;;13.07;8.50;;;28.10;99.90;;;;;;10611205;27;20581;-88
2022/08/04 15:52:25;;;;;;;9.77;8.88;;;27.50;99.90;;;;;;10610303;27;20196;-90
2022/08/04 15:58:00;;;;;;;9.73;8.73;;;27.30;99.90;;;;;;10628095;27;20257;-89
2022/08/04 16:03:02;;;;;;;9.55;8.75;;;26.90;99.90;;;;;;10609585;27;20245;-89
2022/08/04 16:08:12;;;;;;;9.10;8.30;;;26.50;99.90;;;;;;10609263;27;20335;-89
2022/08/04 16:13:24;;;;;;;9.35;8.55;;;26.30;99.90;;;;;;10627114;27;20196;-89
2022/08/04 16:18:30;;;;;;;9.18;8.38;;;25.70;99.90;;;;;;10627193;27;20249;-89
2022/08/04 16:23:41;;;;;;;10.10;9.20;;;26.10;99.90;;;;;;10626840;27;20241;-89
2022/08/04 16:28:57;;;;;;;9.68;8.05;;;25.40;99.90;;;;;;10592438;27;20196;-89
2022/08/04 16:34:00;;;;;;;9.25;8.32;;;25.60;99.90;;;;;;10625892;27;20228;-88
2022/08/04 16:39:22;;;;;;;9.80;8.90;;;26.80;99.90;;;;;;10626335;27;20218;-88
2022/08/04 16:44:32;;;;;;;8.98;8.07;;;26.90;99.90;;;;;;10626363;27;20249;-90
2022/08/04 16:50:01;;;;;;;9.60;8.80;;;26.60;99.90;;;;;;10606424;27;20208;-89
2022/08/04 16:55:04;;;;;;;10.13;8.27;;;26.80;99.90;;;;;;10624306;27;20200;-89
2022/08/04 17:00:07;;;;;;;9.48;8.68;;;27.10;99.90;;;;;;10625256;27;20685;-88
2022/08/04 17:05:21;;;;;;;9.73;8.80;;;26.90;99.90;;;;;;10606709;27;20204;-88
2022/08/04 17:10:42;;;;;;;9.45;8.50;;;26.80;99.90;;;;;;10605900;27;20203;-89
2022/08/04 17:15:50;;;;;;;9.18;8.45;;;26.50;99.90;;;;;;10606584;27;20214;-89
2022/08/04 17:20:55;;;;;;;9.48;8.63;;;26.00;99.90;;;;;;10624403;27;20201;-89
2022/08/04 17:26:13;;;;;;;9.27;8.38;;;26.30;99.90;;;;;;10589096;27;20635;-88
2022/08/04 17:31:16;;;;;;;11.77;8.90;;;26.30;99.90;;;;;;10605015;27;20252;-90
2022/08/04 17:36:27;;;;;;;9.65;8.75;;;26.30;99.90;;;;;;10623717;27;20543;-89
2022/08/04 17:41:30;;;;;;;9.32;8.32;;;25.90;99.90;;;;;;10605228;27;20208;-89
2022/08/04 17:46:45;;;;;;;9.73;8.07;;;26.20;99.90;;;;;;10624080;27;20276;-89
2022/08/04 17:52:18;;;;;;;8.85;7.95;;;26.30;99.90;;;;;;10623679;27;20196;-89
2022/08/04 17:57:40;;;;;;;11.48;8.48;;;26.30;99.90;;;;;;10608519;28;20533;-89
2022/08/04 18:02:52;;;;;;;11.23;8.48;;;26.20;99.90;;;;;;10604455;27;20204;-88
2022/08/04 18:07:54;;;;;;;13.32;8.90;;;26.10;99.90;;;;;;10613440;27;20245;-89
2022/08/04 18:13:17;;;;;;;11.73;9.10;;;26.00;99.90;;;;;;10616729;27;20645;-90
2022/08/04 18:18:22;;;;;;;15.98;8.93;;;25.90;99.90;;;;;;10612741;27;20196;-89
2022/08/04 18:23:25;;;;;;;17.33;9.15;;;25.70;99.90;;;;;;10613687;27;20660;-89
2022/08/04 18:28:33;;;;;;;9.13;8.23;;;25.50;99.90;;;;;;10614039;27;20212;-88
2022/08/04 18:33:36;;;;;;;18.58;7.45;;;25.30;99.90;;;;;;10611856;27;20281;-88
2022/08/04 18:38:43;;;;;;;10.88;8.25;;;25.10;99.90;;;;;;10630848;27;20245;-89
2022/08/04 18:43:57;;;;;;;12.35;8.90;;;24.80;99.90;;;;;;10614293;27;20607;-89
2022/08/04 18:49:01;;;;;;;22.10;9.23;;;24.50;99.90;;;;;;10611630;27;20224;-88
2022/08/04 18:54:05;;;;;;;11.88;8.18;;;24.30;99.90;;;;;;10611486;27;20222;-89
2022/08/04 18:59:07;;;;;;;15.13;8.35;;;24.10;99.90;;;;;;10627914;27;20222;-90
2022/08/04 19:15:14;;;;;;;15.60;6.57;;;24.30;99.90;;;;;;10327751;22;20332;-86
2022/08/04 19:20:20;;;;;;;7.70;6.63;;;24.60;99.90;;;;;;10332617;28;20221;-86
2022/08/04 19:25:27;;;;;;;8.48;5.93;;;25.00;99.90;;;;;;10331993;28;20262;-86
2022/08/04 19:30:50;;;;;;;11.15;6.20;;;25.30;99.90;;;;;;10370411;28;20212;-86
2022/08/04 19:35:53;;;;;;;9.13;5.20;;;25.50;99.90;;;;;;10344246;28;20229;-87
2022/08/04 19:40:55;;;;;;;10.30;6.05;;;25.50;99.90;;;;;;10327673;28;20255;-89
2022/08/04 19:45:59;;;;;;;10.05;5.88;;;25.70;99.90;;;;;;10344469;28;20240;-89
2022/08/04 19:51:02;;;;;;;9.20;5.85;;;25.70;99.90;;;;;;10372337;28;20232;-89
2022/08/04 19:56:06;;;;;;;8.80;5.85;;;25.80;99.90;;;;;;10371479;28;20346;-89
2022/08/04 20:01:08;;;;;;;6.72;5.57;;;25.80;99.90;;;;;;10356448;28;20286;-89
2022/08/04 20:06:31;;;;;;;8.70;5.80;;;25.80;99.90;;;;;;10331260;28;20256;-88
2022/08/04 20:11:34;;;;;;;8.75;5.70;;;25.80;99.90;;;;;;10331743;28;20260;-88
2022/08/04 20:16:36;;;;;;;5.78;5.22;;;25.80;99.90;;;;;;10341116;28;20267;-87
2022/08/04 20:21:39;;;;;;;5.32;4.82;;;25.80;99.90;;;;;;10313618;28;20731;-88
2022/08/04 20:26:57;;;;;;;5.93;5.32;;;25.70;99.90;;;;;;10314964;28;20256;-88
2022/08/04 20:32:00;;;;;;;5.50;5.10;;;25.70;99.90;;;;;;10330674;28;20197;-88
2022/08/04 20:37:10;;;;;;;7.80;5.07;;;25.70;99.90;;;;;;10328224;28;20758;-88
2022/08/04 20:42:16;;;;;;;5.55;5.05;;;25.70;99.90;;;;;;10334864;23;20268;-77
2022/08/04 20:47:30;;;;;;;6.68;5.40;;;25.60;99.90;;;;;;10326125;28;20248;-78
2022/08/04 20:52:38;;;;;;;6.03;5.20;;;25.60;99.90;;;;;;10329093;23;20692;-94
2022/08/04 20:57:41;;;;;;;6.18;5.53;;;25.50;99.90;;;;;;10325626;28;20233;-91
2022/08/04 21:02:52;;;;;;;5.68;5.18;;;25.50;99.90;;;;;;10326742;28;20212;-91
2022/08/04 21:07:56;;;;;;;5.18;4.68;;;25.50;99.90;;;;;;10324142;28;20311;-90
2022/08/04 21:13:00;;;;;;;5.63;5.10;;;25.50;99.90;;;;;;10299488;28;20702;-90
2022/08/04 21:18:05;;;;;;;4.80;4.35;;;25.40;99.90;;;;;;10317289;28;20237;-91
2022/08/04 21:23:12;;;;;;;5.47;4.85;;;25.40;99.90;;;;;;10308418;28;20225;-90
2022/08/04 21:28:15;;;;;;;5.53;5.05;;;25.40;99.90;;;;;;10317790;28;20298;-90
2022/08/04 21:33:23;;;;;;;7.72;5.40;;;25.30;99.90;;;;;;10316231;28;20272;-90
2022/08/04 21:38:47;;;;;;;6.13;5.53;;;25.30;99.90;;;;;;10309450;28;21003;-90
2022/08/04 21:43:54;;;;;;;6.45;5.38;;;25.30;99.90;;;;;;10309303;28;20237;-90
2022/08/04 21:49:03;;;;;;;6.10;5.60;;;25.20;99.90;;;;;;10317485;28;20387;-89
2022/08/04 21:54:10;;;;;;;5.65;5.05;;;25.20;99.90;;;;;;10320043;28;20221;-90
2022/08/04 21:59:20;;;;;;;5.57;5.18;;;25.10;99.90;;;;;;10310682;28;20727;-90
2022/08/04 22:04:31;;;;;;;5.93;5.18;;;25.10;99.90;;;;;;10322027;28;20681;-91
2022/08/04 22:09:34;;;;;;;5.85;5.25;;;25.10;99.90;;;;;;10307725;28;20260;-92
2022/08/04 22:14:42;;;;;;;6.07;5.07;;;25.00;99.90;;;;;;10326388;28;20225;-91
2022/08/04 22:19:59;;;;;;;5.30;4.50;;;25.00;99.90;;;;;;10325267;28;20575;-92
2022/08/04 22:25:06;;;;;;;6.20;5.60;;;24.90;99.90;;;;;;10323551;28;20226;-92
2022/08/04 22:30:15;;;;;;;5.38;4.97;;;24.90;99.90;;;;;;10323954;28;20639;-92
2022/08/04 22:35:20;;;;;;;5.90;5.40;;;24.80;99.90;;;;;;10324605;28;20237;-92
2022/08/04 22:40:43;;;;;;;6.25;5.70;;;24.80;99.90;;;;;;10326058;28;20980;-92
2022/08/04 22:45:48;;;;;;;5.82;5.43;;;24.70;99.90;;;;;;10324389;28;20260;-92
2022/08/04 22:50:53;;;;;;;5.93;5.43;;;24.70;99.90;;;;;;10327815;28;20229;-92
2022/08/04 22:55:56;;;;;;;5.63;5.05;;;24.70;99.90;;;;;;10331092;28;20201;-91
2022/08/04 23:01:13;;;;;;;5.10;4.70;;;24.70;99.90;;;;;;10331485;28;20282;-91
2022/08/04 23:06:16;;;;;;;6.75;5.18;;;24.60;99.90;;;;;;10322972;28;20307;-91
2022/08/04 23:11:25;;;;;;;5.55;5.05;;;24.60;99.90;;;;;;10316942;28;20228;-91
2022/08/04 23:16:37;;;;;;;5.55;5.05;;;24.60;99.90;;;;;;10330916;28;20283;-91
2022/08/04 23:21:43;;;;;;;5.85;5.35;;;24.60;99.90;;;;;;10316463;28;20193;-92
2022/08/04 23:27:03;;;;;;;6.25;5.70;;;24.50;99.90;;;;;;10328008;28;20693;-90
2022/08/04 23:32:06;;;;;;;4.78;4.38;;;24.50;99.90;;;;;;10334306;28;20193;-91
2022/08/04 23:37:08;;;;;;;5.82;5.25;;;24.50;99.90;;;;;;10331142;28;20264;-91
2022/08/04 23:42:11;;;;;;;5.85;5.25;;;24.40;99.90;;;;;;10329676;28;20260;-91
2022/08/04 23:47:22;;;;;;;5.65;5.25;;;24.40;99.90;;;;;;10331100;28;20252;-92
2022/08/04 23:52:44;;;;;;;5.80;5.40;;;24.40;99.90;;;;;;10306561;28;20232;-92
2022/08/04 23:57:50;;;;;;;8.93;5.43;;;24.40;99.90;;;;;;10312714;28;20277;-91
